createdAt,value
2023-02-17T00:01:29.971Z,92.62
2023-02-17T00:03:58.293Z,92.62
2023-02-17T00:06:28.822Z,92.91
2023-02-17T00:08:57.113Z,93.09
2023-02-17T00:11:25.040Z,93.08
2023-02-17T00:13:55.239Z,93.09
2023-02-17T00:16:26.604Z,93.07
2023-02-17T00:18:57.196Z,93.07
2023-02-17T00:21:27.176Z,92.82
2023-02-17T00:23:56.728Z,93.02
2023-02-17T00:26:24.667Z,93.06
2023-02-17T00:28:52.864Z,93.24
2023-02-17T00:31:22.675Z,93.26
2023-02-17T00:33:53.648Z,92.94
2023-02-17T00:36:21.613Z,93.24
2023-02-17T00:38:49.527Z,93.41
2023-02-17T00:41:19.078Z,93.50
2023-02-17T00:43:48.710Z,93.50
2023-02-17T00:46:18.184Z,93.38
2023-02-17T00:48:47.978Z,93.35
2023-02-17T00:51:17.138Z,93.38
2023-02-17T00:53:45.692Z,93.56
2023-02-17T00:56:14.039Z,93.79
2023-02-17T00:58:42.578Z,93.67
2023-02-17T01:01:11.303Z,93.65
2023-02-17T01:03:41.669Z,93.94
2023-02-17T01:06:24.904Z,94.23
2023-02-17T01:08:53.553Z,94.01
2023-02-17T01:11:27.794Z,94.06
2023-02-17T01:14:00.941Z,94.06
2023-02-17T01:16:32.271Z,94.11
2023-02-17T01:19:00.150Z,94.28
2023-02-17T01:21:29.925Z,94.24
2023-02-17T01:24:00.698Z,94.45
2023-02-17T01:26:31.730Z,94.52
2023-02-17T01:29:04.584Z,94.68
2023-02-17T01:31:33.205Z,94.64
2023-02-17T01:34:02.689Z,94.41
2023-02-17T01:36:31.265Z,94.42
2023-02-17T01:39:00.513Z,94.60
2023-02-17T01:41:28.940Z,94.46
2023-02-17T01:44:09.851Z,94.59
2023-02-17T01:46:39.813Z,94.66
2023-02-17T01:49:39.479Z,94.60
2023-02-17T01:52:13.169Z,94.60
2023-02-17T01:55:10.976Z,94.67
2023-02-17T01:57:41.875Z,94.61
2023-02-17T02:00:12.458Z,94.79
2023-02-17T02:02:43.751Z,95.02
2023-02-17T02:05:14.690Z,95.06
2023-02-17T02:07:44.349Z,95.17
2023-02-17T02:10:14.311Z,95.21
2023-02-17T02:12:43.578Z,95.27
2023-02-17T02:15:23.528Z,95.47
2023-02-17T02:18:00.746Z,95.43
2023-02-17T02:20:41.362Z,95.55
2023-02-17T02:23:34.038Z,95.70
2023-02-17T02:26:20.114Z,95.94
2023-02-17T02:29:23.204Z,95.84
2023-02-17T02:31:57.203Z,96.01
2023-02-17T02:34:37.236Z,95.97
2023-02-17T02:37:21.284Z,96.05
2023-02-17T02:39:52.721Z,95.97
2023-02-17T02:42:23.780Z,96.18
2023-02-17T02:44:51.717Z,96.11
2023-02-17T02:47:44.255Z,96.27
2023-02-17T02:50:35.183Z,96.26
2023-02-17T02:53:02.994Z,96.17
2023-02-17T02:55:39.567Z,96.27
2023-02-17T02:58:30.727Z,96.13
2023-02-17T03:01:24.177Z,96.12
2023-02-17T03:03:52.248Z,96.12
2023-02-17T03:06:31.540Z,96.40
2023-02-17T03:09:09.063Z,96.62
2023-02-17T03:11:37.166Z,96.66
2023-02-17T03:14:11.487Z,96.80
2023-02-17T03:16:41.878Z,96.88
2023-02-17T03:19:10.950Z,97.02
2023-02-17T03:21:48.337Z,97.19
2023-02-17T03:24:16.833Z,96.87
2023-02-17T03:26:45.138Z,96.80
2023-02-17T03:29:13.137Z,97.06
2023-02-17T03:31:41.877Z,96.80
2023-02-17T03:34:10.492Z,97.06
2023-02-17T03:36:38.423Z,97.13
2023-02-17T03:39:06.245Z,97.31
2023-02-17T03:41:34.265Z,97.28
2023-02-17T03:44:02.113Z,97.39
2023-02-17T03:46:30.063Z,97.47
2023-02-17T03:48:57.996Z,97.36
2023-02-17T03:51:26.149Z,97.47
2023-02-17T03:53:54.243Z,97.40
2023-02-17T03:56:22.129Z,97.39
2023-02-17T03:58:50.088Z,97.32
2023-02-17T04:01:18.064Z,97.11
2023-02-17T04:03:46.643Z,97.09
2023-02-17T04:06:14.979Z,97.15
2023-02-17T04:08:42.844Z,97.28
2023-02-17T04:11:11.161Z,97.25
2023-02-17T04:13:39.329Z,97.17
2023-02-17T04:16:09.819Z,97.09
2023-02-17T04:18:38.277Z,97.00
2023-02-17T04:21:06.715Z,97.03
2023-02-17T04:23:35.980Z,97.10
2023-02-17T04:26:05.992Z,97.10
2023-02-17T04:28:35.052Z,97.04
2023-02-17T04:31:03.162Z,97.21
2023-02-17T04:33:31.368Z,97.40
2023-02-17T04:35:59.347Z,97.42
2023-02-17T04:38:28.784Z,97.39
2023-02-17T04:40:57.467Z,97.56
2023-02-17T04:43:26.939Z,97.55
2023-02-17T04:45:55.736Z,97.80
2023-02-17T04:48:24.093Z,98.11
2023-02-17T04:50:52.375Z,98.15
2023-02-17T04:53:20.314Z,98.13
2023-02-17T04:55:49.781Z,98.13
2023-02-17T04:58:18.656Z,98.55
2023-02-17T05:00:48.405Z,98.53
2023-02-17T05:03:17.732Z,98.56
2023-02-17T05:05:45.891Z,98.65
2023-02-17T05:08:13.714Z,98.58
2023-02-17T05:10:41.598Z,98.51
2023-02-17T05:13:09.648Z,98.85
2023-02-17T05:15:37.554Z,98.99
2023-02-17T05:18:05.525Z,99.03
2023-02-17T05:20:33.472Z,98.96
2023-02-17T05:23:01.510Z,99.00
2023-02-17T05:25:29.511Z,99.00
2023-02-17T05:27:57.484Z,98.93
2023-02-17T05:30:25.518Z,98.96
2023-02-17T05:32:53.415Z,98.85
2023-02-17T05:35:21.972Z,99.00
2023-02-17T05:37:50.132Z,99.05
2023-02-17T05:40:18.556Z,99.13
2023-02-17T05:42:46.482Z,99.02
2023-02-17T05:45:14.366Z,99.31
2023-02-17T05:47:42.218Z,99.13
2023-02-17T05:50:11.385Z,98.98
2023-02-17T05:52:39.366Z,98.94
2023-02-17T05:55:07.463Z,99.06
2023-02-17T05:57:35.446Z,98.92
2023-02-17T06:00:04.745Z,98.83
2023-02-17T06:02:40.155Z,99.06
2023-02-17T06:05:08.859Z,99.09
2023-02-17T06:07:37.164Z,99.11
2023-02-17T06:10:06.520Z,99.11
2023-02-17T06:12:34.540Z,98.99
2023-02-17T06:15:02.522Z,98.93
2023-02-17T06:17:30.532Z,98.98
2023-02-17T06:19:58.373Z,98.96
2023-02-17T06:22:26.357Z,99.07
2023-02-17T06:24:54.272Z,99.02
2023-02-17T06:27:26.699Z,99.22
2023-02-17T06:29:54.503Z,99.30
2023-02-17T06:32:22.361Z,99.26
2023-02-17T06:34:50.178Z,99.27
2023-02-17T06:37:18.016Z,99.14
2023-02-17T06:39:45.885Z,99.08
2023-02-17T06:42:13.860Z,99.10
2023-02-17T06:44:41.817Z,99.07
2023-02-17T06:47:09.704Z,99.15
2023-02-17T06:49:39.204Z,99.04
2023-02-17T06:52:08.706Z,99.10
2023-02-17T06:54:36.566Z,99.09
2023-02-17T06:57:04.377Z,98.89
2023-02-17T06:59:32.843Z,98.94
2023-02-17T07:02:02.446Z,98.81
2023-02-17T07:04:30.665Z,98.76
2023-02-17T07:06:58.600Z,98.66
2023-02-17T07:09:26.518Z,98.58
2023-02-17T07:11:54.429Z,98.41
2023-02-17T07:14:24.736Z,98.54
2023-02-17T07:16:53.299Z,98.45
2023-02-17T07:19:21.201Z,98.19
2023-02-17T07:21:49.052Z,98.21
2023-02-17T07:24:17.129Z,97.99
2023-02-17T07:26:45.293Z,97.78
2023-02-17T07:29:13.244Z,97.76
2023-02-17T07:31:41.226Z,97.62
2023-02-17T07:34:09.120Z,97.46
2023-02-17T07:36:37.027Z,97.35
2023-02-17T07:39:05.366Z,97.30
2023-02-17T07:41:33.583Z,97.39
2023-02-17T07:44:06.812Z,96.98
2023-02-17T07:46:35.892Z,97.14
2023-02-17T07:49:03.884Z,96.91
2023-02-17T07:51:32.156Z,96.73
2023-02-17T07:54:01.510Z,96.65
2023-02-17T07:56:29.454Z,96.36
2023-02-17T07:58:57.546Z,96.22
2023-02-17T08:01:25.934Z,96.16
2023-02-17T08:03:54.190Z,95.74
2023-02-17T08:06:24.602Z,96.06
2023-02-17T08:08:53.659Z,95.82
2023-02-17T08:11:21.659Z,95.48
2023-02-17T08:13:49.509Z,95.03
2023-02-17T08:16:17.421Z,95.03
2023-02-17T08:18:45.390Z,94.80
2023-02-17T08:21:13.324Z,94.90
2023-02-17T08:23:41.216Z,94.37
2023-02-17T08:26:09.291Z,94.20
2023-02-17T08:28:37.204Z,93.61
2023-02-17T08:31:05.216Z,93.68
2023-02-17T08:33:33.252Z,93.67
2023-02-17T08:36:07.354Z,93.30
2023-02-17T08:38:35.656Z,93.58
2023-02-17T08:41:12.940Z,93.38
2023-02-17T08:43:41.413Z,93.37
2023-02-17T08:46:10.741Z,93.53
2023-02-17T08:48:38.668Z,93.14
2023-02-17T08:51:07.171Z,93.05
2023-02-17T08:53:35.287Z,93.24
2023-02-17T08:56:03.449Z,93.37
2023-02-17T08:58:32.043Z,93.26
2023-02-17T09:01:00.077Z,93.18
2023-02-17T09:03:28.205Z,93.37
2023-02-17T09:05:58.900Z,93.18
2023-02-17T09:08:27.461Z,93.46
2023-02-17T09:10:55.366Z,93.48
2023-02-17T09:13:23.278Z,93.31
2023-02-17T09:15:51.441Z,93.36
2023-02-17T09:18:20.240Z,93.06
2023-02-17T09:20:49.755Z,93.36
2023-02-17T09:23:18.167Z,93.47
2023-02-17T09:25:46.448Z,93.82
2023-02-17T09:28:14.366Z,93.64
2023-02-17T09:30:42.706Z,93.41
2023-02-17T09:33:10.744Z,93.40
2023-02-17T09:35:39.344Z,93.25
2023-02-17T09:38:07.324Z,92.94
2023-02-17T09:40:41.209Z,92.94
2023-02-17T09:43:22.203Z,92.76
2023-02-17T09:45:55.144Z,92.80
2023-02-17T09:48:28.814Z,92.22
2023-02-17T09:51:02.772Z,91.56
2023-02-17T09:53:39.135Z,91.30
2023-02-17T09:56:14.446Z,91.54
2023-02-17T09:58:59.576Z,90.45
2023-02-17T10:01:33.123Z,90.26
2023-02-17T10:04:10.009Z,89.94
2023-02-17T10:06:43.362Z,89.73
2023-02-17T10:09:14.223Z,89.37
2023-02-17T10:11:49.367Z,89.04
2023-02-17T10:14:28.088Z,88.78
2023-02-17T10:17:08.299Z,88.38
2023-02-17T10:19:49.381Z,88.54
2023-02-17T10:22:23.211Z,88.54
2023-02-17T10:24:51.621Z,88.14
2023-02-17T10:27:36.855Z,87.75
2023-02-17T10:30:38.582Z,87.96
2023-02-17T10:33:18.553Z,88.36
2023-02-17T10:35:59.086Z,88.32
2023-02-17T10:38:51.100Z,88.18
2023-02-17T10:41:27.239Z,88.52
2023-02-17T10:43:55.791Z,88.70
2023-02-17T10:46:29.446Z,88.31
2023-02-17T10:48:59.557Z,88.39
2023-02-17T10:51:31.088Z,88.51
2023-02-17T10:54:29.292Z,88.58
2023-02-17T10:57:01.113Z,88.66
2023-02-17T10:59:47.798Z,88.72
2023-02-17T11:02:47.234Z,89.19
2023-02-17T11:05:27.544Z,89.06
2023-02-17T11:08:00.278Z,89.07
2023-02-17T11:10:36.464Z,89.08
2023-02-17T11:13:19.186Z,89.21
2023-02-17T11:15:47.897Z,88.23
2023-02-17T11:18:24.215Z,87.71
2023-02-17T11:21:01.552Z,87.64
2023-02-17T11:23:29.584Z,86.65
2023-02-17T11:26:09.020Z,86.59
2023-02-17T11:28:37.269Z,86.12
2023-02-17T11:31:05.398Z,86.08
2023-02-17T11:33:38.817Z,85.96
2023-02-17T11:36:07.766Z,85.22
2023-02-17T11:38:38.858Z,85.50
2023-02-17T11:41:07.093Z,85.55
2023-02-17T11:43:35.947Z,85.31
2023-02-17T11:46:06.989Z,85.47
2023-02-17T11:48:53.491Z,86.00
2023-02-17T11:51:30.493Z,86.17
2023-02-17T11:54:04.036Z,86.04
2023-02-17T11:56:31.897Z,86.36
2023-02-17T11:59:10.891Z,86.62
2023-02-17T12:01:38.898Z,87.06
2023-02-17T12:04:21.680Z,87.09
2023-02-17T12:06:52.742Z,87.26
2023-02-17T12:09:20.418Z,87.58
2023-02-17T12:11:57.269Z,87.88
2023-02-17T12:14:31.484Z,87.85
2023-02-17T12:17:17.937Z,87.80
2023-02-17T12:19:45.755Z,88.21
2023-02-17T12:22:13.473Z,88.50
2023-02-17T12:24:43.973Z,88.55
2023-02-17T12:27:11.728Z,88.47
2023-02-17T12:29:45.650Z,88.65
2023-02-17T12:32:31.858Z,88.63
2023-02-17T12:35:02.851Z,88.63
2023-02-17T12:37:32.294Z,88.74
2023-02-17T12:40:02.333Z,88.82
2023-02-17T12:42:36.082Z,88.82
2023-02-17T12:45:07.441Z,88.58
2023-02-17T12:47:51.494Z,88.94
2023-02-17T12:50:39.488Z,89.45
2023-02-17T12:53:12.962Z,89.56
2023-02-17T12:55:45.176Z,89.47
2023-02-17T12:58:15.942Z,89.56
2023-02-17T13:00:45.191Z,89.70
2023-02-17T13:03:13.245Z,89.79
2023-02-17T13:05:42.151Z,89.99
2023-02-17T13:08:09.935Z,89.94
2023-02-17T13:10:40.383Z,89.92
2023-02-17T13:13:08.543Z,90.03
2023-02-17T13:15:38.068Z,90.40
2023-02-17T13:18:26.226Z,90.38
2023-02-17T13:20:56.780Z,90.53
2023-02-17T13:23:29.292Z,90.70
2023-02-17T13:26:16.043Z,90.82
2023-02-17T13:28:44.596Z,90.79
2023-02-17T13:31:17.393Z,90.68
2023-02-17T13:33:45.751Z,91.03
2023-02-17T13:36:28.868Z,90.97
2023-02-17T13:38:59.135Z,90.70
2023-02-17T13:41:27.866Z,91.00
2023-02-17T13:43:55.770Z,91.11
2023-02-17T13:46:25.351Z,91.13
2023-02-17T13:49:03.987Z,91.37
2023-02-17T13:51:33.004Z,91.29
2023-02-17T13:54:08.521Z,91.32
2023-02-17T13:56:36.382Z,91.35
2023-02-17T13:59:26.970Z,91.53
2023-02-17T14:01:55.294Z,91.65
2023-02-17T14:04:32.604Z,91.66
2023-02-17T14:07:03.579Z,91.52
2023-02-17T14:09:33.892Z,91.70
2023-02-17T14:12:03.233Z,91.82
2023-02-17T14:14:32.701Z,91.82
2023-02-17T14:17:04.851Z,92.00
2023-02-17T14:19:46.447Z,92.14
2023-02-17T14:22:30.901Z,92.25
2023-02-17T14:25:03.704Z,92.43
2023-02-17T14:27:44.937Z,92.60
2023-02-17T14:30:14.456Z,92.74
2023-02-17T14:32:42.374Z,92.78
2023-02-17T14:35:13.663Z,92.97
2023-02-17T14:37:42.095Z,93.13
2023-02-17T14:40:20.851Z,93.38
2023-02-17T14:42:49.449Z,93.75
2023-02-17T14:45:18.031Z,94.06
2023-02-17T14:47:46.676Z,94.24
2023-02-17T14:50:14.696Z,94.53
2023-02-17T14:52:45.025Z,94.73
2023-02-17T14:55:33.030Z,95.18
2023-02-17T14:58:01.172Z,95.72
2023-02-17T15:00:28.967Z,96.17
2023-02-17T15:02:56.820Z,96.71
2023-02-17T15:05:24.688Z,96.89
2023-02-17T15:07:52.452Z,97.36
2023-02-17T15:10:27.453Z,97.88
2023-02-17T15:12:56.064Z,98.33
2023-02-17T15:15:23.827Z,98.78
2023-02-17T15:17:51.790Z,99.13
2023-02-17T15:20:19.530Z,99.59
2023-02-17T15:22:47.606Z,100.00
2023-02-17T15:25:17.197Z,100.00
2023-02-17T15:27:46.273Z,100.00
2023-02-17T15:30:19.453Z,100.00
2023-02-17T15:32:47.734Z,100.00
2023-02-17T15:35:23.486Z,100.00
2023-02-17T15:37:51.617Z,100.00
2023-02-17T15:40:25.160Z,100.00
2023-02-17T15:42:59.883Z,100.00
2023-02-17T15:45:27.654Z,100.00
2023-02-17T15:48:10.738Z,100.00
2023-02-17T15:50:38.550Z,100.00
2023-02-17T15:53:06.804Z,100.00
2023-02-17T15:55:35.504Z,100.00
2023-02-17T15:58:04.676Z,100.00
2023-02-17T16:00:33.843Z,100.00
2023-02-17T16:03:02.015Z,100.00
2023-02-17T16:05:30.429Z,100.00
2023-02-17T16:07:58.351Z,100.00
2023-02-17T16:10:27.458Z,100.00
2023-02-17T16:12:56.449Z,100.00
2023-02-17T16:15:24.764Z,100.00
2023-02-17T16:17:52.738Z,100.00
2023-02-17T16:20:28.906Z,100.00
2023-02-17T16:22:58.278Z,100.00
2023-02-17T16:25:26.320Z,100.00
2023-02-17T16:27:54.969Z,100.00
2023-02-17T16:30:23.006Z,100.00
2023-02-17T16:32:51.456Z,100.00
2023-02-17T16:35:21.127Z,100.00
2023-02-17T16:37:52.383Z,100.00
2023-02-17T16:40:21.566Z,100.00
2023-02-17T16:42:49.768Z,100.00
2023-02-17T16:45:19.028Z,100.00
2023-02-17T16:47:49.132Z,100.00
2023-02-17T16:50:27.760Z,100.00
2023-02-17T16:52:57.310Z,100.00
2023-02-17T16:55:27.642Z,100.00
2023-02-17T16:57:56.247Z,100.00
2023-02-17T17:00:26.374Z,100.00
2023-02-17T17:02:54.387Z,100.00
2023-02-17T17:05:23.143Z,100.00
2023-02-17T17:07:51.150Z,100.00
2023-02-17T17:10:20.800Z,100.00
2023-02-17T17:12:48.625Z,100.00
2023-02-17T17:15:16.728Z,100.00
2023-02-17T17:17:53.668Z,100.00
2023-02-17T17:20:22.590Z,100.00
2023-02-17T17:22:50.514Z,100.00
2023-02-17T17:25:19.724Z,100.00
2023-02-17T17:27:49.767Z,100.00
2023-02-17T17:30:21.403Z,100.00
2023-02-17T17:32:49.212Z,100.00
2023-02-17T17:35:17.036Z,100.00
2023-02-17T17:37:45.251Z,100.00
2023-02-17T17:40:23.941Z,100.00
2023-02-17T17:42:52.171Z,100.00
2023-02-17T17:45:20.510Z,100.00
2023-02-17T17:47:48.771Z,100.00
2023-02-17T17:50:18.967Z,100.00
2023-02-17T17:52:47.005Z,100.00
2023-02-17T17:55:14.927Z,100.00
2023-02-17T17:57:43.121Z,100.00
2023-02-17T18:00:13.336Z,100.00
2023-02-17T18:02:44.355Z,100.00
2023-02-17T18:05:12.534Z,100.00
2023-02-17T18:07:41.659Z,100.00
2023-02-17T18:10:10.694Z,100.00
2023-02-17T18:12:38.828Z,100.00
2023-02-17T18:15:07.369Z,100.00
2023-02-17T18:17:37.224Z,100.00
2023-02-17T18:20:26.471Z,100.00
2023-02-17T18:22:54.984Z,100.00
2023-02-17T18:25:22.916Z,100.00
2023-02-17T18:27:50.862Z,100.00
2023-02-17T18:30:21.232Z,100.00
2023-02-17T18:32:49.709Z,100.00
2023-02-17T18:35:17.621Z,100.00
2023-02-17T18:37:46.140Z,100.00
2023-02-17T18:40:15.283Z,100.00
2023-02-17T18:42:46.202Z,100.00
2023-02-17T18:45:16.488Z,100.00
2023-02-17T18:47:44.466Z,100.00
2023-02-17T18:50:12.657Z,100.00
2023-02-17T18:52:41.788Z,100.00
2023-02-17T18:55:10.360Z,100.00
2023-02-17T18:57:38.550Z,100.00
2023-02-17T19:00:07.606Z,100.00
2023-02-17T19:02:36.971Z,100.00
2023-02-17T19:05:06.206Z,100.00
2023-02-17T19:07:37.331Z,100.00
2023-02-17T19:10:06.055Z,100.00
2023-02-17T19:12:33.995Z,100.00
2023-02-17T19:15:02.130Z,100.00
2023-02-17T19:17:31.016Z,100.00
2023-02-17T19:20:00.589Z,100.00
2023-02-17T19:22:30.029Z,100.00
2023-02-17T19:24:58.800Z,100.00
2023-02-17T19:27:28.934Z,100.00
2023-02-17T19:29:57.556Z,100.00
2023-02-17T19:32:25.530Z,100.00
2023-02-17T19:34:53.927Z,100.00
2023-02-17T19:37:22.614Z,100.00
2023-02-17T19:39:52.588Z,100.00
2023-02-17T19:42:21.743Z,100.00
2023-02-17T19:44:51.025Z,100.00
2023-02-17T19:47:19.923Z,100.00
2023-02-17T19:49:48.890Z,100.00
2023-02-17T19:52:19.092Z,100.00
2023-02-17T19:54:49.633Z,100.00
2023-02-17T19:57:17.726Z,100.00
2023-02-17T19:59:45.626Z,100.00
2023-02-17T20:02:14.573Z,100.00
2023-02-17T20:04:42.983Z,100.00
2023-02-17T20:07:10.820Z,100.00
2023-02-17T20:09:39.841Z,100.00
2023-02-17T20:12:07.974Z,100.00
2023-02-17T20:14:35.844Z,100.00
2023-02-17T20:17:28.337Z,100.00
2023-02-17T20:19:56.488Z,100.00
2023-02-17T20:22:24.744Z,100.00
2023-02-17T20:24:53.220Z,100.00
2023-02-17T20:27:21.549Z,100.00
2023-02-17T20:29:49.444Z,100.00
2023-02-17T20:32:17.437Z,100.00
2023-02-17T20:34:45.243Z,100.00
2023-02-17T20:37:13.199Z,100.00
2023-02-17T20:39:41.042Z,100.00
2023-02-17T20:42:09.397Z,100.00
2023-02-17T20:44:37.390Z,100.00
2023-02-17T20:47:05.257Z,100.00
2023-02-17T20:49:33.135Z,100.00
2023-02-17T20:52:01.092Z,100.00
2023-02-17T20:57:44.906Z,100.00
2023-02-17T21:00:16.534Z,100.00
2023-02-17T21:02:45.228Z,100.00
2023-02-17T21:05:13.936Z,100.00
2023-02-17T21:10:50.712Z,100.00
2023-02-17T21:13:23.055Z,100.00
2023-02-17T21:16:26.703Z,100.00
2023-02-17T21:19:26.245Z,100.00
2023-02-17T21:21:54.285Z,100.00
2023-02-17T21:24:22.111Z,100.00
2023-02-17T21:26:49.925Z,100.00
2023-02-17T21:29:17.757Z,100.00
2023-02-17T21:31:45.853Z,100.00
2023-02-17T21:34:13.706Z,100.00
2023-02-17T21:36:41.688Z,100.00
2023-02-17T21:39:09.804Z,100.00
2023-02-17T21:41:40.485Z,100.00
2023-02-17T21:44:11.293Z,100.00
2023-02-17T21:46:39.295Z,100.00
2023-02-17T21:49:07.142Z,100.00
2023-02-17T21:51:37.010Z,100.00
2023-02-17T21:54:05.520Z,100.00
2023-02-17T21:56:33.472Z,100.00
2023-02-17T21:59:01.491Z,100.00
2023-02-17T22:01:29.430Z,100.00
2023-02-17T22:03:57.600Z,100.00
2023-02-17T22:06:27.399Z,100.00
2023-02-17T22:08:57.348Z,100.00
2023-02-17T22:11:26.695Z,100.00
2023-02-17T22:13:59.078Z,100.00
2023-02-17T22:16:29.025Z,100.00
2023-02-17T22:18:56.849Z,100.00
2023-02-17T22:21:24.769Z,100.00
2023-02-17T22:23:52.513Z,100.00
2023-02-17T22:26:22.509Z,100.00
2023-02-17T22:28:50.853Z,100.00
2023-02-17T22:31:20.268Z,100.00
2023-02-17T22:33:48.248Z,100.00
2023-02-17T22:36:17.475Z,100.00
2023-02-17T22:38:45.533Z,100.00
2023-02-17T22:41:14.840Z,100.00
2023-02-17T22:43:43.153Z,100.00
2023-02-17T22:46:11.972Z,100.00
2023-02-17T22:48:39.730Z,100.00
2023-02-17T22:51:12.528Z,100.00
2023-02-17T22:53:40.286Z,100.00
2023-02-17T22:56:09.094Z,100.00
2023-02-17T22:58:37.057Z,100.00
2023-02-17T23:01:06.041Z,100.00
2023-02-17T23:03:34.146Z,100.00
2023-02-17T23:06:03.249Z,100.00
2023-02-17T23:08:31.437Z,100.00
2023-02-17T23:10:59.672Z,100.00
2023-02-17T23:13:27.592Z,100.00
2023-02-17T23:16:43.114Z,100.00
2023-02-17T23:19:12.968Z,100.00
2023-02-17T23:21:45.297Z,100.00
2023-02-17T23:24:14.517Z,100.00
2023-02-17T23:26:42.348Z,100.00
2023-02-17T23:29:10.510Z,100.00
2023-02-17T23:31:38.669Z,100.00
2023-02-17T23:34:06.927Z,100.00
2023-02-17T23:36:34.838Z,100.00
2023-02-17T23:39:02.642Z,100.00
2023-02-17T23:41:30.488Z,100.00
2023-02-17T23:43:58.238Z,100.00
2023-02-17T23:46:25.945Z,100.00
2023-02-17T23:49:04.414Z,100.00
2023-02-17T23:51:32.178Z,100.00
2023-02-17T23:53:59.944Z,100.00
2023-02-17T23:56:31.721Z,100.00
2023-02-17T23:58:59.785Z,100.00
